Time,TemperatureF,DewpointF,PressureIn,WindDirection,WindDirectionDegrees,WindSpeedMPH,WindSpeedGustMPH,Humidity,HourlyPrecipIn,Conditions,Clouds,dailyrainin,SoftwareType,DateUTC
2013-06-10 00:02:00,75.7,69.5,30.06,NW,315,2.2,2.2,81,0.00,CLR,,0.00,WeatherDisplay:10.37,2013-06-10 10:02:00,
2013-06-10 00:07:00,75.7,69.5,30.06,NNE,22,2.2,4.2,81,0.00,CLR,,0.00,WeatherDisplay:10.37,2013-06-10 10:07:00,
2013-06-10 00:12:00,75.7,69.5,30.06,SSW,202,2.1,2.7,81,0.00,CLR,,0.00,WeatherDisplay:10.37,2013-06-10 10:12:00,
2013-06-10 00:18:00,76.8,70.5,30.06,NNE,22,3.8,5.8,81,0.00,CLR,,0.00,WeatherDisplay:10.37,2013-06-10 10:18:00,
2013-06-10 00:23:00,75.7,69.5,30.06,East,90,3.5,11.5,81,0.00,CLR,,0.00,WeatherDisplay:10.37,2013-06-10 10:23:00,
2013-06-10 00:28:00,75.6,69.4,30.06,East,90,4.1,6.3,81,0.00,CLR,,0.00,WeatherDisplay:10.37,2013-06-10 10:28:00,
2013-06-10 00:33:00,75.7,69.1,30.06,NE,45,2.7,5.8,80,0.00,CLR,,0.00,WeatherDisplay:10.37,2013-06-10 10:33:00,
2013-06-10 00:38:00,75.6,69.0,30.05,NNW,338,1.7,5.8,80,0.00,CLR,,0.00,WeatherDisplay:10.37,2013-06-10 10:38:00,
2013-06-10 00:43:00,75.4,68.8,30.05,NNE,22,3.8,4.6,80,0.00,CLR,,0.00,WeatherDisplay:10.37,2013-06-10 10:43:00,
2013-06-10 00:48:00,75.6,69.4,30.05,West,270,2.8,4.6,81,0.00,CLR,,0.00,WeatherDisplay:10.37,2013-06-10 10:48:00,
2013-06-10 00:53:00,75.7,69.5,30.05,SE,135,4.4,5.8,81,0.00,CLR,,0.00,WeatherDisplay:10.37,2013-06-10 10:53:00,
2013-06-10 00:58:00,75.4,69.2,30.05,NE,45,6.0,6.8,81,0.00,CLR,,0.00,WeatherDisplay:10.37,2013-06-10 10:58:00,
2013-06-10 01:03:00,75.4,69.2,30.04,NE,45,5.8,6.9,81,0.00,CLR,,0.00,WeatherDisplay:10.37,2013-06-10 11:03:00,
2013-06-10 01:08:00,75.4,69.2,30.04,ENE,68,4.4,5.8,81,0.00,CLR,,0.00,WeatherDisplay:10.37,2013-06-10 11:08:00,
2013-06-10 01:13:00,75.4,69.2,30.03,NW,315,2.2,4.7,81,0.00,CLR,,0.00,WeatherDisplay:10.37,2013-06-10 11:13:00,
2013-06-10 01:18:00,75.6,69.4,30.03,ESE,112,4.2,6.9,81,0.00,CLR,,0.00,WeatherDisplay:10.37,2013-06-10 11:18:00,
2013-06-10 01:24:00,75.7,69.5,30.03,ESE,112,6.1,6.3,81,0.00,CLR,,0.00,WeatherDisplay:10.37,2013-06-10 11:24:00,
2013-06-10 01:29:00,75.6,69.4,30.03,ENE,68,5.5,6.9,81,0.00,CLR,,0.00,WeatherDisplay:10.37,2013-06-10 11:29:00,
2013-06-10 01:34:00,75.6,69.4,30.03,NNE,22,3.6,4.6,81,0.00,CLR,,0.00,WeatherDisplay:10.37,2013-06-10 11:34:00,
2013-06-10 01:39:00,75.7,69.5,30.03,NE,45,3.0,5.8,81,0.00,CLR,,0.00,WeatherDisplay:10.37,2013-06-10 11:39:00,
2013-06-10 01:44:00,75.7,69.5,30.03,ENE,68,4.4,6.9,81,0.00,CLR,,0.00,WeatherDisplay:10.37,2013-06-10 11:44:00,
2013-06-10 01:49:00,75.7,69.5,30.03,ENE,68,3.7,5.8,81,0.00,CLR,,0.00,WeatherDisplay:10.37,2013-06-10 11:49:00,
2013-06-10 01:54:00,75.6,69.4,30.03,NE,45,4.6,6.8,81,0.00,CLR,,0.00,WeatherDisplay:10.37,2013-06-10 11:54:00,
2013-06-10 01:59:00,75.6,69.4,30.03,East,90,4.0,4.6,81,0.00,CLR,,0.00,WeatherDisplay:10.37,2013-06-10 11:59:00,
2013-06-10 02:04:00,75.4,69.2,30.03,ESE,112,3.7,4.7,81,0.00,CLR,,0.00,WeatherDisplay:10.37,2013-06-10 12:04:00,
2013-06-10 02:09:00,75.4,69.2,30.03,NE,45,2.1,2.7,81,0.00,CLR,,0.00,WeatherDisplay:10.37,2013-06-10 12:09:00,
2013-06-10 02:14:00,75.6,69.4,30.03,NE,45,4.1,4.7,81,0.00,CLR,,0.00,WeatherDisplay:10.37,2013-06-10 12:14:00,
2013-06-10 02:19:00,75.4,69.2,30.03,NE,45,4.2,5.8,81,0.00,CLR,,0.00,WeatherDisplay:10.37,2013-06-10 12:19:00,
2013-06-10 02:24:00,75.4,69.2,30.02,East,90,4.0,5.3,81,0.00,CLR,,0.00,WeatherDisplay:10.37,2013-06-10 12:24:00,
2013-06-10 02:29:00,75.4,69.2,30.02,ESE,112,2.6,4.6,81,0.00,CLR,,0.00,WeatherDisplay:10.37,2013-06-10 12:29:00,
2013-06-10 02:34:00,75.4,69.2,30.02,East,90,4.9,5.8,81,0.00,CLR,,0.00,WeatherDisplay:10.37,2013-06-10 12:34:00,
2013-06-10 02:39:00,75.4,69.2,30.02,ENE,68,5.5,6.9,81,0.00,CLR,,0.00,WeatherDisplay:10.37,2013-06-10 12:39:00,
2013-06-10 02:45:00,75.2,69.0,30.02,NE,47,6.0,9.0,81,0.00,CLR,,0.00,WeatherDisplay:10.37,2013-06-10 12:45:00,
2013-06-10 02:50:00,75.6,69.4,30.02,East,81,8.0,9.0,81,0.00,CLR,,0.00,WeatherDisplay:10.37,2013-06-10 12:50:00,
2013-06-10 02:55:00,75.5,69.3,30.02,East,88,2.0,7.0,81,0.00,CLR,,0.00,WeatherDisplay:10.37,2013-06-10 12:55:00,
2013-06-10 03:00:00,75.4,69.2,30.02,NE,53,3.0,9.0,81,0.00,CLR,,0.00,WeatherDisplay:10.37,2013-06-10 13:00:00,
2013-06-10 03:05:00,75.2,69.3,30.02,NE,46,3.0,6.0,82,0.00,CLR,,0.00,WeatherDisplay:10.37,2013-06-10 13:05:00,
2013-06-10 03:10:00,75.2,69.3,30.02,NNE,32,2.0,6.0,82,0.00,CLR,,0.00,WeatherDisplay:10.37,2013-06-10 13:10:00,
2013-06-10 03:15:00,75.2,69.3,30.02,NNE,20,3.0,6.0,82,0.00,CLR,,0.00,WeatherDisplay:10.37,2013-06-10 13:15:00,
2013-06-10 03:20:00,75.2,69.7,30.02,NE,54,5.0,6.0,83,0.00,CLR,,0.00,WeatherDisplay:10.37,2013-06-10 13:20:00,
2013-06-10 03:25:00,75.2,69.7,30.02,NE,48,3.0,6.0,83,0.00,CLR,,0.00,WeatherDisplay:10.37,2013-06-10 13:25:00,
2013-06-10 03:30:00,75.2,69.7,30.02,WSW,248,2.5,3.5,83,0.00,CLR,,0.00,WeatherDisplay:10.37,2013-06-10 13:30:00,
2013-06-10 03:35:00,75.2,69.7,30.02,NNE,32,2.0,6.0,83,0.00,CLR,,0.00,WeatherDisplay:10.37,2013-06-10 13:35:00,
2013-06-10 03:40:00,75.0,69.1,30.02,South,180,3.2,4.6,82,0.00,CLR,,0.00,WeatherDisplay:10.37,2013-06-10 13:40:00,
2013-06-10 03:45:00,75.0,69.1,30.02,East,84,3.0,6.0,82,0.00,CLR,,0.00,WeatherDisplay:10.37,2013-06-10 13:45:00,
2013-06-10 03:50:00,75.0,69.1,30.01,South,180,2.3,3.5,82,0.00,CLR,,0.00,WeatherDisplay:10.37,2013-06-10 13:50:00,
2013-06-10 03:55:00,75.0,69.1,30.01,East,82,3.0,7.0,82,0.00,CLR,,0.00,WeatherDisplay:10.37,2013-06-10 13:55:00,
2013-06-10 04:00:00,75.0,69.1,30.01,NE,54,3.0,6.0,82,0.00,CLR,,0.00,WeatherDisplay:10.37,2013-06-10 14:00:00,
2013-06-10 04:05:00,75.0,69.1,30.01,NE,47,5.0,9.0,82,0.00,CLR,,0.00,WeatherDisplay:10.37,2013-06-10 14:05:00,
2013-06-10 04:10:00,75.0,69.1,30.01,ENE,64,3.0,6.0,82,0.00,CLR,,0.00,WeatherDisplay:10.37,2013-06-10 14:10:00,
2013-06-10 04:15:00,74.8,68.9,30.02,NE,45,3.4,6.9,82,0.00,CLR,,0.00,WeatherDisplay:10.37,2013-06-10 14:15:00,
2013-06-10 04:20:00,74.7,68.8,30.02,ENE,58,3.0,6.0,82,0.00,CLR,,0.00,WeatherDisplay:10.37,2013-06-10 14:20:00,
2013-06-10 04:25:00,74.7,68.8,30.01,North,9,5.0,6.0,82,0.00,CLR,,0.00,WeatherDisplay:10.37,2013-06-10 14:25:00,
2013-06-10 04:30:00,74.7,68.9,30.01,NNW,330,6.0,7.0,82,0.00,CLR,,0.00,WeatherDisplay:10.37,2013-06-10 14:30:00,
2013-06-10 04:35:00,74.8,68.9,30.01,NE,34,6.0,7.0,82,0.00,CLR,,0.00,WeatherDisplay:10.37,2013-06-10 14:35:00,
2013-06-10 04:40:00,74.8,68.9,30.02,ENE,64,3.0,7.0,82,0.00,CLR,,0.00,WeatherDisplay:10.37,2013-06-10 14:40:00,
2013-06-10 04:45:00,74.7,68.8,30.02,NE,50,6.0,8.0,82,0.00,CLR,,0.00,WeatherDisplay:10.37,2013-06-10 14:45:00,
2013-06-10 04:50:00,74.7,68.8,30.02,NE,53,5.0,8.0,82,0.00,CLR,,0.00,WeatherDisplay:10.37,2013-06-10 14:50:00,
2013-06-10 04:55:00,74.7,68.8,30.02,NE,52,3.0,7.0,82,0.00,CLR,,0.00,WeatherDisplay:10.37,2013-06-10 14:55:00,
2013-06-10 05:00:00,74.7,68.8,30.02,ENE,57,2.0,4.0,82,0.00,CLR,,0.00,WeatherDisplay:10.37,2013-06-10 15:00:00,
2013-06-10 05:05:00,74.7,68.8,30.02,NNE,18,0.0,5.0,82,0.00,CLR,,0.00,WeatherDisplay:10.37,2013-06-10 15:05:00,
2013-06-10 05:10:00,74.7,68.8,30.02,NNE,22,4.1,5.8,82,0.00,CLR,,0.00,WeatherDisplay:10.37,2013-06-10 15:10:00,
2013-06-10 05:15:00,74.8,68.9,30.02,ENE,69,3.0,6.0,82,0.00,CLR,,0.00,WeatherDisplay:10.37,2013-06-10 15:15:00,
2013-06-10 05:20:00,74.8,68.9,30.02,East,90,2.3,3.7,82,0.00,CLR,,0.00,WeatherDisplay:10.37,2013-06-10 15:20:00,
2013-06-10 05:25:00,74.8,69.3,30.03,North,356,3.0,5.0,83,0.00,CLR,,0.00,WeatherDisplay:10.37,2013-06-10 15:25:00,
2013-06-10 05:30:00,74.8,68.9,30.03,ENE,68,4.8,5.3,82,0.00,CLR,,0.00,WeatherDisplay:10.37,2013-06-10 15:30:00,
2013-06-10 05:35:00,74.7,68.8,30.02,ENE,72,3.0,8.0,82,0.00,CLR,,0.00,WeatherDisplay:10.37,2013-06-10 15:35:00,
2013-06-10 05:40:00,74.9,69.0,30.02,NE,42,6.0,7.0,82,0.00,CLR,,0.00,WeatherDisplay:10.37,2013-06-10 15:40:00,
2013-06-10 05:45:00,74.7,68.8,30.02,North,4,3.0,5.0,82,0.00,CLR,,0.00,WeatherDisplay:10.37,2013-06-10 15:45:00,
2013-06-10 05:50:00,74.7,68.8,30.03,North,3,3.0,6.0,82,0.00,CLR,,0.00,WeatherDisplay:10.37,2013-06-10 15:50:00,
2013-06-10 05:55:00,74.7,68.8,30.03,NNE,33,3.0,6.0,82,0.00,CLR,,0.00,WeatherDisplay:10.37,2013-06-10 15:55:00,
2013-06-10 06:00:00,74.7,68.8,30.03,ENE,61,3.0,6.0,82,0.00,CLR,,0.00,WeatherDisplay:10.37,2013-06-10 16:00:00,
2013-06-10 06:05:00,74.7,68.8,30.03,ENE,57,5.0,9.0,82,0.00,CLR,,0.00,WeatherDisplay:10.37,2013-06-10 16:05:00,
2013-06-10 06:10:00,74.7,68.8,30.03,ENE,63,2.0,6.0,82,0.00,CLR,,0.00,WeatherDisplay:10.37,2013-06-10 16:10:00,
2013-06-10 06:15:00,74.8,68.9,30.04,NE,46,2.0,6.0,82,0.00,CLR,,0.00,WeatherDisplay:10.37,2013-06-10 16:15:00,
2013-06-10 06:20:00,74.8,68.9,30.04,NNE,32,3.0,9.0,82,0.00,CLR,,0.00,WeatherDisplay:10.37,2013-06-10 16:20:00,
2013-06-10 06:25:00,74.9,69.0,30.04,NNE,30,2.0,6.0,82,0.00,CLR,,0.00,WeatherDisplay:10.37,2013-06-10 16:25:00,
2013-06-10 06:30:00,75.0,69.1,30.04,NNE,19,2.0,6.0,82,0.00,CLR,,0.00,WeatherDisplay:10.37,2013-06-10 16:30:00,
2013-06-10 06:35:00,75.0,69.1,30.04,NE,54,1.0,6.0,82,0.00,CLR,,0.00,WeatherDisplay:10.37,2013-06-10 16:35:00,
2013-06-10 06:40:00,75.0,69.1,30.04,East,87,6.0,7.0,82,0.00,CLR,,0.00,WeatherDisplay:10.37,2013-06-10 16:40:00,
2013-06-10 06:45:00,75.5,69.7,30.04,East,87,6.0,8.0,82,0.00,CLR,,0.00,WeatherDisplay:10.37,2013-06-10 16:45:00,
2013-06-10 06:50:00,76.3,70.4,30.04,ESE,109,3.0,6.0,82,0.00,CLR,,0.00,WeatherDisplay:10.37,2013-06-10 16:50:00,
2013-06-10 06:55:00,76.7,70.0,30.04,East,100,5.0,8.0,80,0.00,CLR,,0.00,WeatherDisplay:10.37,2013-06-10 16:55:00,
2013-06-10 06:59:00,77.4,70.0,30.04,ESE,112,5.2,7.3,78,0.00,CLR,,0.00,WeatherDisplay:10.37,2013-06-10 16:59:00,
2013-06-10 07:05:00,77.5,69.7,30.04,East,94,6.0,8.0,77,0.00,CLR,,0.00,WeatherDisplay:10.37,2013-06-10 17:05:00,
2013-06-10 07:10:00,78.3,70.1,30.04,ESE,112,7.0,8.3,76,0.00,CLR,,0.00,WeatherDisplay:10.37,2013-06-10 17:10:00,
2013-06-10 07:15:00,77.2,69.0,30.04,East,91,6.0,10.0,76,0.00,CLR,,0.00,WeatherDisplay:10.37,2013-06-10 17:15:00,
2013-06-10 07:20:00,78.3,70.1,30.04,North,360,4.7,10.4,76,0.00,CLR,,0.00,WeatherDisplay:10.37,2013-06-10 17:20:00,
2013-06-10 07:25:00,79.5,70.5,30.04,ENE,76,5.0,8.0,74,0.00,CLR,,0.00,WeatherDisplay:10.37,2013-06-10 17:25:00,
2013-06-10 07:30:00,80.1,70.7,30.04,East,90,5.7,5.8,73,0.00,CLR,,0.00,WeatherDisplay:10.37,2013-06-10 17:30:00,
2013-06-10 07:35:00,79.5,69.7,30.04,East,80,8.0,9.0,72,0.00,CLR,,0.00,WeatherDisplay:10.37,2013-06-10 17:35:00,
2013-06-10 07:40:00,79.1,70.1,30.04,East,88,8.0,10.0,74,0.00,CLR,,0.00,WeatherDisplay:10.37,2013-06-10 17:40:00,
2013-06-10 07:45:00,79.1,69.7,30.04,East,86,7.0,12.0,73,0.00,CLR,,0.00,WeatherDisplay:10.37,2013-06-10 17:45:00,
2013-06-10 07:50:00,79.7,70.2,30.03,East,97,8.0,11.0,73,0.00,CLR,,0.00,WeatherDisplay:10.37,2013-06-10 17:50:00,
2013-06-10 07:55:00,79.1,69.7,30.03,East,98,9.0,14.0,73,0.00,CLR,,0.00,WeatherDisplay:10.37,2013-06-10 17:55:00,
2013-06-10 08:00:00,79.2,70.2,30.03,ENE,76,9.0,11.0,74,0.00,CLR,,0.00,WeatherDisplay:10.37,2013-06-10 18:00:00,
2013-06-10 08:05:00,79.0,70.0,30.03,ESE,112,9.8,10.4,74,0.00,CLR,,0.00,WeatherDisplay:10.37,2013-06-10 18:05:00,
2013-06-10 08:10:00,79.0,70.0,30.03,East,80,8.0,12.0,74,0.00,CLR,,0.00,WeatherDisplay:10.37,2013-06-10 18:10:00,
2013-06-10 08:15:00,78.4,69.4,30.04,ESE,112,7.3,10.4,74,0.00,CLR,,0.00,WeatherDisplay:10.37,2013-06-10 18:15:00,
2013-06-10 08:20:00,77.7,69.1,30.04,East,87,6.0,10.0,75,0.00,CLR,,0.00,WeatherDisplay:10.37,2013-06-10 18:20:00,
2013-06-10 08:25:00,79.0,69.6,30.04,ENE,68,7.3,7.3,73,0.00,CLR,,0.00,WeatherDisplay:10.37,2013-06-10 18:25:00,
2013-06-10 08:30:00,79.4,69.5,30.04,ENE,70,12.0,15.0,72,0.00,CLR,,0.00,WeatherDisplay:10.37,2013-06-10 18:30:00,
2013-06-10 08:35:00,80.3,70.0,30.05,East,90,9.0,12.0,71,0.00,CLR,,0.00,WeatherDisplay:10.37,2013-06-10 18:35:00,
2013-06-10 08:40:00,80.4,70.1,30.05,ESE,104,10.0,16.0,71,0.00,CLR,,0.00,WeatherDisplay:10.37,2013-06-10 18:40:00,
2013-06-10 08:45:00,79.2,69.0,30.05,East,91,8.0,13.0,71,0.00,CLR,,0.00,WeatherDisplay:10.37,2013-06-10 18:45:00,
2013-06-10 08:50:00,80.7,71.2,30.04,ENE,72,7.0,9.0,73,0.00,CLR,,0.00,WeatherDisplay:10.37,2013-06-10 18:50:00,
2013-06-10 08:55:00,81.2,70.9,30.04,East,80,8.0,11.0,71,0.00,CLR,,0.00,WeatherDisplay:10.37,2013-06-10 18:55:00,
2013-06-10 09:00:00,80.6,69.9,30.05,East,79,7.0,10.0,70,0.00,CLR,,0.00,WeatherDisplay:10.37,2013-06-10 19:00:00,
2013-06-10 09:05:00,81.7,70.9,30.05,ENE,76,8.0,12.0,70,0.00,CLR,,0.00,WeatherDisplay:10.37,2013-06-10 19:05:00,
2013-06-10 09:10:00,80.6,70.7,30.05,ENE,76,10.0,14.0,72,0.00,CLR,,0.00,WeatherDisplay:10.37,2013-06-10 19:10:00,
2013-06-10 09:15:00,80.5,70.2,30.05,East,81,8.0,12.0,71,0.00,CLR,,0.00,WeatherDisplay:10.37,2013-06-10 19:15:00,
2013-06-10 09:20:00,81.0,70.7,30.05,ESE,112,6.0,12.7,71,0.00,CLR,,0.00,WeatherDisplay:10.37,2013-06-10 19:20:00,
2013-06-10 09:25:00,81.3,70.6,30.05,East,93,8.0,13.0,70,0.00,CLR,,0.00,WeatherDisplay:10.37,2013-06-10 19:25:00,
2013-06-10 09:30:00,79.5,69.7,30.05,East,90,9.1,16.1,72,0.00,CLR,,0.00,WeatherDisplay:10.37,2013-06-10 19:30:00,
2013-06-10 09:35:00,81.2,70.5,30.05,East,93,8.0,13.0,70,0.00,CLR,,0.00,WeatherDisplay:10.37,2013-06-10 19:35:00,
2013-06-10 09:40:00,81.0,71.1,30.04,NE,53,8.0,12.0,72,0.00,CLR,,0.00,WeatherDisplay:10.37,2013-06-10 19:40:00,
2013-06-10 09:45:00,79.9,69.2,30.04,East,82,9.0,15.0,70,0.00,CLR,,0.00,WeatherDisplay:10.37,2013-06-10 19:45:00,
2013-06-10 09:50:00,81.0,70.3,30.04,East,86,8.0,15.0,70,0.00,CLR,,0.00,WeatherDisplay:10.37,2013-06-10 19:50:00,
2013-06-10 09:54:00,80.6,69.5,30.04,NNE,22,5.6,11.5,69,0.00,CLR,,0.00,WeatherDisplay:10.37,2013-06-10 19:54:00,
2013-06-10 10:00:00,81.7,70.9,30.04,East,93,9.0,12.0,70,0.00,CLR,,0.00,WeatherDisplay:10.37,2013-06-10 20:00:00,
2013-06-10 10:05:00,81.3,71.0,30.04,ENE,68,6.2,13.8,71,0.00,CLR,,0.00,WeatherDisplay:10.37,2013-06-10 20:05:00,
2013-06-10 10:10:00,81.4,69.4,30.04,East,85,12.0,14.0,67,0.00,CLR,,0.00,WeatherDisplay:10.37,2013-06-10 20:10:00,
2013-06-10 10:15:00,81.0,69.9,30.04,NNE,22,9.4,10.4,69,0.00,CLR,,0.00,WeatherDisplay:10.37,2013-06-10 20:15:00,
2013-06-10 10:20:00,80.7,70.8,30.04,East,80,10.0,13.0,72,0.00,CLR,,0.00,WeatherDisplay:10.37,2013-06-10 20:20:00,
2013-06-10 10:25:00,80.6,69.9,30.03,ESE,107,9.0,14.0,70,0.00,CLR,,0.00,WeatherDisplay:10.37,2013-06-10 20:25:00,
2013-06-10 10:30:00,79.7,69.9,30.03,ESE,113,9.0,11.0,72,0.00,CLR,,0.00,WeatherDisplay:10.37,2013-06-10 20:30:00,
2013-06-10 10:35:00,80.2,70.4,30.03,ENE,68,6.9,9.2,72,0.00,CLR,,0.00,WeatherDisplay:10.37,2013-06-10 20:35:00,
2013-06-10 10:40:00,80.6,70.3,30.04,East,90,9.6,11.5,71,0.00,CLR,,0.00,WeatherDisplay:10.37,2013-06-10 20:40:00,
2013-06-10 10:45:00,79.7,69.5,30.04,ENE,68,8.5,10.4,71,0.00,CLR,,0.00,WeatherDisplay:10.37,2013-06-10 20:45:00,
2013-06-10 10:50:00,79.9,70.1,30.04,South,180,7.3,10.4,72,0.00,CLR,,0.00,WeatherDisplay:10.37,2013-06-10 20:50:00,
2013-06-10 10:55:00,80.2,70.4,30.04,NE,45,7.6,9.2,72,0.00,CLR,,0.00,WeatherDisplay:10.37,2013-06-10 20:55:00,
2013-06-10 11:00:00,81.9,71.6,30.03,ESE,112,6.0,8.3,71,0.00,CLR,,0.00,WeatherDisplay:10.37,2013-06-10 21:00:00,
2013-06-10 11:05:00,81.5,70.8,30.03,ENE,68,5.7,8.3,70,0.00,CLR,,0.00,WeatherDisplay:10.37,2013-06-10 21:05:00,
2013-06-10 11:10:00,82.2,71.0,30.03,ESE,112,8.9,10.4,69,0.00,CLR,,0.00,WeatherDisplay:10.37,2013-06-10 21:10:00,
2013-06-10 11:15:00,81.0,70.7,30.03,East,90,9.8,10.9,71,0.00,CLR,,0.00,WeatherDisplay:10.37,2013-06-10 21:15:00,
2013-06-10 11:20:00,82.4,71.6,30.03,ESE,112,6.8,10.4,70,0.00,CLR,,0.00,WeatherDisplay:10.37,2013-06-10 21:20:00,
2013-06-10 11:25:00,81.0,69.9,30.03,North,360,8.4,9.2,69,0.00,CLR,,0.00,WeatherDisplay:10.37,2013-06-10 21:25:00,
2013-06-10 11:30:00,80.2,69.9,30.03,NE,45,7.4,10.4,71,0.00,CLR,,0.00,WeatherDisplay:10.37,2013-06-10 21:30:00,
2013-06-10 11:35:00,80.8,70.5,30.03,North,360,8.6,11.5,71,0.00,CLR,,0.00,WeatherDisplay:10.37,2013-06-10 21:35:00,
2013-06-10 11:40:00,81.3,70.6,30.03,ESE,112,7.8,9.2,70,0.00,CLR,,0.00,WeatherDisplay:10.37,2013-06-10 21:40:00,
2013-06-10 11:45:00,81.9,71.2,30.03,WNW,292,3.0,5.8,70,0.00,CLR,,0.00,WeatherDisplay:10.37,2013-06-10 21:45:00,
2013-06-10 11:50:00,81.5,70.8,30.02,North,360,7.2,9.2,70,0.00,CLR,,0.00,WeatherDisplay:10.37,2013-06-10 21:50:00,
2013-06-10 11:56:00,81.7,71.0,30.02,ESE,112,7.9,11.5,70,0.00,CLR,,0.00,WeatherDisplay:10.37,2013-06-10 21:56:00,
2013-06-10 12:01:00,81.9,70.7,30.02,East,90,10.3,11.5,69,0.00,CLR,,0.00,WeatherDisplay:10.37,2013-06-10 22:01:00,
2013-06-10 12:06:00,82.2,70.1,30.02,NE,45,7.2,9.9,67,0.00,CLR,,0.00,WeatherDisplay:10.37,2013-06-10 22:06:00,
2013-06-10 12:11:00,81.5,69.9,30.03,NNE,22,10.3,11.5,68,0.00,CLR,,0.00,WeatherDisplay:10.37,2013-06-10 22:11:00,
2013-06-10 12:16:00,81.5,71.2,30.03,ESE,112,9.5,11.4,71,0.00,CLR,,0.00,WeatherDisplay:10.37,2013-06-10 22:16:00,
2013-06-10 12:21:00,81.5,70.3,30.03,East,90,5.8,12.7,69,0.00,CLR,,0.00,WeatherDisplay:10.37,2013-06-10 22:21:00,
2013-06-10 12:26:00,80.2,69.5,30.02,NNE,22,9.0,10.4,70,0.00,CLR,,0.00,WeatherDisplay:10.37,2013-06-10 22:26:00,
2013-06-10 12:31:00,81.0,69.9,30.02,NE,45,8.5,10.4,69,0.00,CLR,,0.00,WeatherDisplay:10.37,2013-06-10 22:31:00,
2013-06-10 12:37:00,82.2,70.6,30.02,NNE,22,8.6,10.4,68,0.00,CLR,,0.00,WeatherDisplay:10.37,2013-06-10 22:37:00,
2013-06-10 12:42:00,82.4,70.8,30.02,ENE,68,11.5,13.8,68,0.00,CLR,,0.00,WeatherDisplay:10.37,2013-06-10 22:42:00,
2013-06-10 12:47:00,83.1,70.6,30.01,ESE,112,9.8,11.5,66,0.00,CLR,,0.00,WeatherDisplay:10.37,2013-06-10 22:47:00,
2013-06-10 12:52:00,82.8,70.3,30.01,East,90,11.6,17.1,66,0.00,CLR,,0.00,WeatherDisplay:10.37,2013-06-10 22:52:00,
2013-06-10 12:57:00,81.5,70.3,30.01,NE,45,7.3,10.4,69,0.00,CLR,,0.00,WeatherDisplay:10.37,2013-06-10 22:57:00,
2013-06-10 13:02:00,81.7,70.5,30.02,ESE,112,9.6,13.8,69,0.00,CLR,,0.00,WeatherDisplay:10.37,2013-06-10 23:02:00,
2013-06-10 13:07:00,82.6,70.1,30.02,East,90,11.8,13.8,66,0.00,CLR,,0.00,WeatherDisplay:10.37,2013-06-10 23:07:00,
2013-06-10 13:12:00,81.0,70.3,30.00,East,90,10.3,11.5,70,0.00,CLR,,0.00,WeatherDisplay:10.37,2013-06-10 23:12:00,
2013-06-10 13:17:00,79.9,69.7,30.00,East,90,9.9,10.4,71,0.00,CLR,,0.00,WeatherDisplay:10.37,2013-06-10 23:17:00,
2013-06-10 13:22:00,82.0,70.4,30.00,SE,135,12.7,15.0,68,0.00,CLR,,0.00,WeatherDisplay:10.37,2013-06-10 23:22:00,
2013-06-10 13:27:00,82.0,70.4,30.00,East,90,8.5,16.1,68,0.00,CLR,,0.00,WeatherDisplay:10.37,2013-06-10 23:27:00,
2013-06-10 13:32:00,82.0,69.5,30.00,ESE,112,7.9,9.9,66,0.00,CLR,,0.00,WeatherDisplay:10.37,2013-06-10 23:32:00,
2013-06-10 13:38:00,80.6,69.9,30.00,East,90,8.8,12.7,70,0.00,CLR,,0.00,WeatherDisplay:10.37,2013-06-10 23:38:00,
2013-06-10 13:43:00,82.6,71.4,30.00,NNE,22,6.9,10.4,69,0.00,CLR,,0.00,WeatherDisplay:10.37,2013-06-10 23:43:00,
2013-06-10 13:48:00,82.6,70.1,30.00,ESE,112,9.1,10.4,66,0.00,CLR,,0.00,WeatherDisplay:10.37,2013-06-10 23:48:00,
2013-06-10 13:53:00,82.2,70.6,30.00,ESE,112,8.7,10.4,68,0.00,CLR,,0.00,WeatherDisplay:10.37,2013-06-10 23:53:00,
2013-06-10 13:58:00,82.8,71.6,30.00,NE,45,7.3,12.7,69,0.00,CLR,,0.00,WeatherDisplay:10.37,2013-06-10 23:58:00,
2013-06-10 14:03:00,82.0,71.2,30.00,East,90,9.0,12.7,70,0.00,CLR,,0.00,WeatherDisplay:10.37,2013-06-11 00:03:00,
2013-06-10 14:08:00,81.5,70.3,30.00,SE,135,9.5,12.7,69,0.00,CLR,,0.00,WeatherDisplay:10.37,2013-06-11 00:08:00,
2013-06-10 14:13:00,81.1,70.8,30.00,ESE,112,9.1,10.4,71,0.00,CLR,,0.00,WeatherDisplay:10.37,2013-06-11 00:13:00,
2013-06-10 14:18:00,81.1,70.8,30.00,NE,45,8.8,9.2,71,0.00,CLR,,0.00,WeatherDisplay:10.37,2013-06-11 00:18:00,
2013-06-10 14:23:00,81.5,71.2,30.00,ENE,68,7.5,9.2,71,0.00,CLR,,0.00,WeatherDisplay:10.37,2013-06-11 00:23:00,
2013-06-10 14:28:00,81.0,70.3,30.00,SE,135,6.2,8.1,70,0.00,CLR,,0.00,WeatherDisplay:10.37,2013-06-11 00:28:00,
2013-06-10 14:33:00,80.4,70.1,30.00,NW,315,7.4,10.4,71,0.00,CLR,,0.00,WeatherDisplay:10.37,2013-06-11 00:33:00,
2013-06-10 14:38:00,80.2,69.9,29.99,ESE,112,8.9,12.7,71,0.00,CLR,,0.00,WeatherDisplay:10.37,2013-06-11 00:38:00,
2013-06-10 14:44:00,80.4,70.1,29.99,NE,45,5.1,9.2,71,0.00,CLR,,0.00,WeatherDisplay:10.37,2013-06-11 00:44:00,
2013-06-10 14:49:00,80.4,70.9,29.99,NNE,22,6.6,9.2,73,0.00,CLR,,0.00,WeatherDisplay:10.37,2013-06-11 00:49:00,
2013-06-10 14:54:00,79.9,70.9,29.99,ENE,68,11.1,13.0,74,0.00,CLR,,0.00,WeatherDisplay:10.37,2013-06-11 00:54:00,
2013-06-10 14:59:00,81.3,71.8,29.99,ESE,112,8.6,11.9,73,0.00,CLR,,0.00,WeatherDisplay:10.37,2013-06-11 00:59:00,
2013-06-10 15:04:00,79.7,70.3,29.99,East,90,9.9,12.4,73,0.00,CLR,,0.00,WeatherDisplay:10.37,2013-06-11 01:04:00,
2013-06-10 15:09:00,79.0,70.0,29.99,NW,315,9.6,11.5,74,0.00,CLR,,0.00,WeatherDisplay:10.37,2013-06-11 01:09:00,
2013-06-10 15:14:00,79.5,70.9,29.99,South,180,9.2,12.7,75,0.00,CLR,,0.00,WeatherDisplay:10.37,2013-06-11 01:14:00,
2013-06-10 15:19:00,79.9,71.3,29.99,NE,45,5.4,10.4,75,0.00,CLR,,0.00,WeatherDisplay:10.37,2013-06-11 01:19:00,
2013-06-10 15:24:00,79.7,70.7,29.99,ESE,112,11.2,12.7,74,0.00,CLR,,0.00,WeatherDisplay:10.37,2013-06-11 01:24:00,
2013-06-10 15:29:00,80.8,71.7,29.99,NE,45,6.4,11.4,74,0.00,CLR,,0.00,WeatherDisplay:10.37,2013-06-11 01:29:00,
2013-06-10 15:34:00,80.2,71.2,29.99,East,90,11.5,12.7,74,0.00,CLR,,0.00,WeatherDisplay:10.37,2013-06-11 01:34:00,
2013-06-10 15:39:00,78.8,70.2,29.99,East,90,7.5,9.2,75,0.00,CLR,,0.00,WeatherDisplay:10.37,2013-06-11 01:39:00,
2013-06-10 15:44:00,79.0,70.4,29.99,NE,45,8.6,9.2,75,0.00,CLR,,0.00,WeatherDisplay:10.37,2013-06-11 01:44:00,
2013-06-10 15:49:00,78.4,70.2,29.99,North,360,9.9,11.9,76,0.00,CLR,,0.00,WeatherDisplay:10.37,2013-06-11 01:49:00,
2013-06-10 15:55:00,78.6,70.4,29.99,East,82,8.0,13.0,76,0.00,CLR,,0.00,WeatherDisplay:10.37,2013-06-11 01:55:00,
2013-06-10 16:00:00,78.7,70.5,29.99,East,96,9.0,15.0,76,0.00,CLR,,0.00,WeatherDisplay:10.37,2013-06-11 02:00:00,
2013-06-10 16:05:00,78.3,70.1,29.99,ENE,70,9.0,13.0,76,0.00,CLR,,0.00,WeatherDisplay:10.37,2013-06-11 02:05:00,
2013-06-10 16:10:00,79.1,70.9,29.99,ENE,70,7.0,15.0,76,0.00,CLR,,0.00,WeatherDisplay:10.37,2013-06-11 02:10:00,
2013-06-10 16:15:00,79.3,71.1,29.98,ESE,112,8.3,10.4,76,0.00,CLR,,0.00,WeatherDisplay:10.37,2013-06-11 02:15:00,
2013-06-10 16:20:00,79.2,71.0,29.98,ENE,68,7.0,9.2,76,0.00,CLR,,0.00,WeatherDisplay:10.37,2013-06-11 02:20:00,
2013-06-10 16:25:00,78.6,70.4,29.98,ESE,112,7.8,10.4,76,0.00,CLR,,0.00,WeatherDisplay:10.37,2013-06-11 02:25:00,
2013-06-10 16:30:00,78.8,70.6,29.98,NE,45,10.0,13.8,76,0.00,CLR,,0.00,WeatherDisplay:10.37,2013-06-11 02:30:00,
2013-06-10 16:35:00,78.1,69.9,29.98,NNW,338,7.8,9.2,76,0.00,CLR,,0.00,WeatherDisplay:10.37,2013-06-11 02:35:00,
2013-06-10 16:40:00,78.1,70.3,29.98,East,90,7.5,10.9,77,0.00,CLR,,0.00,WeatherDisplay:10.37,2013-06-11 02:40:00,
2013-06-10 16:45:00,78.1,70.3,29.98,ESE,112,6.5,11.5,77,0.00,CLR,,0.00,WeatherDisplay:10.37,2013-06-11 02:45:00,
2013-06-10 16:50:00,77.7,69.9,29.98,NNW,338,5.4,12.7,77,0.00,CLR,,0.00,WeatherDisplay:10.37,2013-06-11 02:50:00,
2013-06-10 16:55:00,78.3,70.5,29.98,East,90,5.0,8.1,77,0.00,CLR,,0.00,WeatherDisplay:10.37,2013-06-11 02:55:00,
2013-06-10 17:00:00,78.3,70.5,29.98,ESE,112,8.3,8.3,77,0.00,CLR,,0.00,WeatherDisplay:10.37,2013-06-11 03:00:00,
2013-06-10 17:05:00,78.3,70.5,29.98,East,90,10.4,10.4,77,0.00,CLR,,0.00,WeatherDisplay:10.37,2013-06-11 03:05:00,
2013-06-10 17:10:00,77.9,70.1,29.98,East,90,6.2,10.4,77,0.00,CLR,,0.00,WeatherDisplay:10.37,2013-06-11 03:10:00,
2013-06-10 17:15:00,77.9,70.1,29.98,East,90,6.3,8.1,77,0.00,CLR,,0.00,WeatherDisplay:10.37,2013-06-11 03:15:00,
2013-06-10 17:20:00,77.7,70.3,29.98,ENE,68,7.5,11.5,78,0.00,CLR,,0.00,WeatherDisplay:10.37,2013-06-11 03:20:00,
2013-06-10 17:26:00,77.7,70.3,29.98,East,90,6.8,6.9,78,0.00,CLR,,0.00,WeatherDisplay:10.37,2013-06-11 03:26:00,
2013-06-10 17:31:00,77.4,70.4,29.98,NE,45,7.9,9.2,79,0.00,CLR,,0.00,WeatherDisplay:10.37,2013-06-11 03:31:00,
2013-06-10 17:36:00,77.2,70.2,29.98,NE,45,10.5,11.5,79,0.00,CLR,,0.00,WeatherDisplay:10.37,2013-06-11 03:36:00,
2013-06-10 17:41:00,77.2,70.2,29.98,East,90,6.3,6.3,79,0.00,CLR,,0.00,WeatherDisplay:10.37,2013-06-11 03:41:00,
2013-06-10 17:46:00,77.0,70.4,29.98,NE,45,8.5,10.4,80,0.00,CLR,,0.00,WeatherDisplay:10.37,2013-06-11 03:46:00,
2013-06-10 17:51:00,76.8,70.2,29.98,South,180,4.9,6.9,80,0.00,CLR,,0.00,WeatherDisplay:10.37,2013-06-11 03:51:00,
2013-06-10 17:56:00,76.8,70.5,29.98,NE,45,6.3,6.3,81,0.00,CLR,,0.00,WeatherDisplay:10.37,2013-06-11 03:56:00,
2013-06-10 18:01:00,76.8,70.5,29.98,NE,45,6.3,6.3,81,0.00,CLR,,0.00,WeatherDisplay:10.37,2013-06-11 04:01:00,
2013-06-10 18:02:00,77.2,70.9,29.98,East,90,5.7,6.9,81,0.00,CLR,,0.00,WeatherDisplay:10.37,2013-06-11 04:02:00,
2013-06-10 18:07:00,77.4,71.1,29.98,SE,135,7.4,8.3,81,0.00,CLR,,0.00,WeatherDisplay:10.37,2013-06-11 04:07:00,
2013-06-10 18:12:00,77.0,70.7,29.98,NNE,22,6.0,6.9,81,0.00,CLR,,0.00,WeatherDisplay:10.37,2013-06-11 04:12:00,
2013-06-10 18:17:00,77.2,70.9,29.98,East,90,5.0,5.0,81,0.00,CLR,,0.00,WeatherDisplay:10.37,2013-06-11 04:17:00,
2013-06-10 18:23:00,77.0,70.7,29.98,East,90,4.9,5.8,81,0.00,CLR,,0.00,WeatherDisplay:10.37,2013-06-11 04:23:00,
2013-06-10 18:28:00,77.0,70.7,29.99,ESE,112,5.7,8.1,81,0.00,CLR,,0.00,WeatherDisplay:10.37,2013-06-11 04:28:00,
2013-06-10 18:33:00,77.0,70.7,29.99,ESE,112,5.2,8.3,81,0.00,CLR,,0.00,WeatherDisplay:10.37,2013-06-11 04:33:00,
2013-06-10 18:38:00,77.0,70.4,29.99,ESE,112,5.8,6.9,80,0.00,CLR,,0.00,WeatherDisplay:10.37,2013-06-11 04:38:00,
2013-06-10 18:43:00,77.0,70.4,29.99,ENE,68,4.5,5.8,80,0.00,CLR,,0.00,WeatherDisplay:10.37,2013-06-11 04:43:00,
2013-06-10 18:48:00,76.8,69.8,29.99,East,90,5.1,8.1,79,0.00,CLR,,0.00,WeatherDisplay:10.37,2013-06-11 04:48:00,
2013-06-10 18:53:00,76.8,69.8,29.99,ENE,68,8.2,9.2,79,0.00,CLR,,0.00,WeatherDisplay:10.37,2013-06-11 04:53:00,
2013-06-10 18:58:00,76.8,69.8,29.99,ENE,68,5.8,7.8,79,0.00,CLR,,0.00,WeatherDisplay:10.37,2013-06-11 04:58:00,
2013-06-10 19:03:00,76.6,69.6,29.99,North,360,7.9,10.4,79,0.00,CLR,,0.00,WeatherDisplay:10.37,2013-06-11 05:03:00,
2013-06-10 19:08:00,76.5,69.9,29.99,South,180,8.3,8.3,80,0.00,CLR,,0.00,WeatherDisplay:10.37,2013-06-11 05:08:00,
2013-06-10 19:13:00,76.5,69.9,29.99,ENE,68,7.8,10.4,80,0.00,CLR,,0.00,WeatherDisplay:10.37,2013-06-11 05:13:00,
2013-06-10 19:18:00,76.1,69.1,29.99,NE,45,7.0,8.1,79,0.00,CLR,,0.00,WeatherDisplay:10.37,2013-06-11 05:18:00,
2013-06-10 19:23:00,76.5,69.5,30.00,East,90,2.6,3.7,79,0.00,CLR,,0.00,WeatherDisplay:10.37,2013-06-11 05:23:00,
2013-06-10 19:28:00,76.5,69.5,30.00,East,90,3.3,7.8,79,0.00,CLR,,0.00,WeatherDisplay:10.37,2013-06-11 05:28:00,
2013-06-10 19:33:00,76.3,69.3,30.00,ESE,112,4.3,8.1,79,0.00,CLR,,0.00,WeatherDisplay:10.37,2013-06-11 05:33:00,
2013-06-10 19:39:00,76.3,69.3,30.00,East,90,0.0,0.0,79,0.00,CLR,,0.00,WeatherDisplay:10.37,2013-06-11 05:39:00,
2013-06-10 19:44:00,76.3,69.3,30.00,North,360,3.7,6.9,79,0.00,CLR,,0.00,WeatherDisplay:10.37,2013-06-11 05:44:00,
2013-06-10 19:49:00,76.3,69.3,30.00,NNE,22,7.7,8.3,79,0.00,CLR,,0.00,WeatherDisplay:10.37,2013-06-11 05:49:00,
2013-06-10 19:54:00,76.3,69.3,30.00,NNE,22,3.9,4.6,79,0.00,CLR,,0.00,WeatherDisplay:10.37,2013-06-11 05:54:00,
2013-06-10 19:59:00,76.3,69.7,30.00,NE,45,5.9,8.1,80,0.00,CLR,,0.00,WeatherDisplay:10.37,2013-06-11 05:59:00,
2013-06-10 20:04:00,76.1,69.5,30.00,East,90,5.3,8.3,80,0.00,CLR,,0.00,WeatherDisplay:10.37,2013-06-11 06:04:00,
2013-06-10 20:09:00,76.5,69.9,30.00,East,90,4.0,5.8,80,0.00,CLR,,0.00,WeatherDisplay:10.37,2013-06-11 06:09:00,
2013-06-10 20:14:00,76.5,69.9,30.00,East,90,7.3,8.1,80,0.00,CLR,,0.00,WeatherDisplay:10.37,2013-06-11 06:14:00,
2013-06-10 20:19:00,76.5,69.9,30.00,ESE,112,6.4,8.1,80,0.00,CLR,,0.00,WeatherDisplay:10.37,2013-06-11 06:19:00,
2013-06-10 20:24:00,76.5,70.6,30.01,ENE,68,5.9,8.1,82,0.00,CLR,,0.00,WeatherDisplay:10.37,2013-06-11 06:24:00,
2013-06-10 20:29:00,76.1,70.6,30.01,NE,45,5.1,5.8,83,0.00,CLR,,0.00,WeatherDisplay:10.37,2013-06-11 06:29:00,
2013-06-10 20:34:00,76.1,70.9,30.01,East,90,2.3,3.5,84,0.00,CLR,,0.00,WeatherDisplay:10.37,2013-06-11 06:34:00,
2013-06-10 20:39:00,75.9,71.1,30.01,NE,45,4.7,7.8,85,0.00,CLR,,0.00,WeatherDisplay:10.37,2013-06-11 06:39:00,
2013-06-10 20:44:00,75.4,70.6,30.01,NNE,22,4.4,8.1,85,0.00,CLR,,0.00,WeatherDisplay:10.37,2013-06-11 06:44:00,
2013-06-10 20:50:00,75.0,70.5,30.01,NE,45,2.2,3.5,86,0.00,CLR,,0.00,WeatherDisplay:10.37,2013-06-11 06:50:00,
2013-06-10 20:55:00,75.0,70.5,30.01,ENE,57,2.0,5.0,86,0.00,CLR,,0.00,WeatherDisplay:10.37,2013-06-11 06:55:00,
2013-06-10 21:00:00,75.2,70.7,30.01,West,270,2.4,2.4,86,0.00,CLR,,0.00,WeatherDisplay:10.37,2013-06-11 07:00:00,
2013-06-10 21:05:00,75.2,71.1,30.01,WSW,252,2.0,3.0,87,0.00,CLR,,0.00,WeatherDisplay:10.37,2013-06-11 07:05:00,
2013-06-10 21:10:00,75.4,71.3,30.01,ESE,112,2.5,3.5,87,0.00,CLR,,0.00,WeatherDisplay:10.37,2013-06-11 07:10:00,
2013-06-10 21:15:00,75.7,71.6,30.01,SE,144,2.0,5.0,87,0.00,CLR,,0.00,WeatherDisplay:10.37,2013-06-11 07:15:00,
2013-06-10 21:20:00,75.6,71.1,30.01,East,101,3.0,6.0,86,0.00,CLR,,0.00,WeatherDisplay:10.37,2013-06-11 07:20:00,
2013-06-10 21:25:00,75.7,71.2,30.01,East,83,5.0,7.0,86,0.00,CLR,,0.00,WeatherDisplay:10.37,2013-06-11 07:25:00,
2013-06-10 21:30:00,75.7,70.9,30.01,East,82,3.0,7.0,85,0.00,CLR,,0.00,WeatherDisplay:10.37,2013-06-11 07:30:00,
2013-06-10 21:35:00,75.8,70.9,30.01,ENE,57,6.0,9.0,85,0.00,CLR,,0.00,WeatherDisplay:10.37,2013-06-11 07:35:00,
2013-06-10 21:40:00,75.9,71.1,30.02,East,79,3.0,10.0,85,0.00,CLR,,0.00,WeatherDisplay:10.37,2013-06-11 07:40:00,
2013-06-10 21:45:00,75.9,70.7,30.02,East,89,5.0,9.0,84,0.00,CLR,,0.00,WeatherDisplay:10.37,2013-06-11 07:45:00,
2013-06-10 21:50:00,75.4,70.2,30.02,East,79,8.0,10.0,84,0.00,CLR,,0.00,WeatherDisplay:10.37,2013-06-11 07:50:00,
2013-06-10 21:55:00,75.9,70.7,30.02,ENE,76,3.0,7.0,84,0.00,CLR,,0.00,WeatherDisplay:10.37,2013-06-11 07:55:00,
2013-06-10 22:00:00,76.1,70.2,30.02,ENE,75,3.0,9.0,82,0.00,CLR,,0.00,WeatherDisplay:10.37,2013-06-11 08:00:00,
2013-06-10 22:05:00,76.1,70.6,30.02,East,81,3.0,8.0,83,0.00,CLR,,0.00,WeatherDisplay:10.37,2013-06-11 08:05:00,
2013-06-10 22:10:00,76.1,70.2,30.02,East,100,6.0,8.0,82,0.00,CLR,,0.00,WeatherDisplay:10.37,2013-06-11 08:10:00,
2013-06-10 22:15:00,76.1,70.2,30.02,ESE,106,7.0,10.0,82,0.00,CLR,,0.00,WeatherDisplay:10.37,2013-06-11 08:15:00,
2013-06-10 22:20:00,76.1,70.2,30.02,ESE,103,6.0,9.0,82,0.00,CLR,,0.00,WeatherDisplay:10.37,2013-06-11 08:20:00,
2013-06-10 22:25:00,76.1,70.2,30.02,East,95,6.0,7.0,82,0.00,CLR,,0.00,WeatherDisplay:10.37,2013-06-11 08:25:00,
2013-06-10 22:30:00,76.1,70.2,30.02,East,83,3.0,7.0,82,0.00,CLR,,0.00,WeatherDisplay:10.37,2013-06-11 08:30:00,
2013-06-10 22:35:00,76.1,70.2,30.02,ENE,67,5.0,8.0,82,0.00,CLR,,0.00,WeatherDisplay:10.37,2013-06-11 08:35:00,
2013-06-10 22:40:00,76.1,70.2,30.02,East,79,6.0,7.0,82,0.00,CLR,,0.00,WeatherDisplay:10.37,2013-06-11 08:40:00,
2013-06-10 22:45:00,76.1,70.2,30.02,ENE,76,5.0,8.0,82,0.00,CLR,,0.00,WeatherDisplay:10.37,2013-06-11 08:45:00,
2013-06-10 22:50:00,76.1,70.2,30.02,ESE,108,2.0,8.0,82,0.00,CLR,,0.00,WeatherDisplay:10.37,2013-06-11 08:50:00,
2013-06-10 22:55:00,76.1,70.2,30.02,ENE,68,2.0,2.3,82,0.00,CLR,,0.00,WeatherDisplay:10.37,2013-06-11 08:55:00,
2013-06-10 23:00:00,76.1,70.2,30.02,ESE,111,6.0,7.0,82,0.00,CLR,,0.00,WeatherDisplay:10.37,2013-06-11 09:00:00,
2013-06-10 23:05:00,76.1,70.2,30.02,East,92,6.0,10.0,82,0.00,CLR,,0.00,WeatherDisplay:10.37,2013-06-11 09:05:00,
2013-06-10 23:10:00,76.1,70.2,30.02,East,92,7.0,7.0,82,0.00,CLR,,0.00,WeatherDisplay:10.37,2013-06-11 09:10:00,
2013-06-10 23:15:00,76.1,70.2,30.02,South,180,5.1,8.1,82,0.00,CLR,,0.00,WeatherDisplay:10.37,2013-06-11 09:15:00,
2013-06-10 23:20:00,76.1,70.2,30.02,ESE,108,1.0,6.0,82,0.00,CLR,,0.00,WeatherDisplay:10.37,2013-06-11 09:20:00,
2013-06-10 23:25:00,76.1,70.2,30.02,East,87,5.0,6.0,82,0.00,CLR,,0.00,WeatherDisplay:10.37,2013-06-11 09:25:00,
2013-06-10 23:30:00,76.1,70.2,30.02,East,89,1.0,6.0,82,0.00,CLR,,0.00,WeatherDisplay:10.37,2013-06-11 09:30:00,
2013-06-10 23:35:00,76.1,70.2,30.02,East,84,6.0,7.0,82,0.00,CLR,,0.00,WeatherDisplay:10.37,2013-06-11 09:35:00,
2013-06-10 23:40:00,76.2,70.3,30.01,East,80,7.0,9.0,82,0.00,CLR,,0.00,WeatherDisplay:10.37,2013-06-11 09:40:00,
2013-06-10 23:45:00,76.1,70.2,30.01,East,79,2.0,10.0,82,0.00,CLR,,0.00,WeatherDisplay:10.37,2013-06-11 09:45:00,
2013-06-10 23:50:00,76.1,70.2,30.01,East,80,7.0,9.0,82,0.00,CLR,,0.00,WeatherDisplay:10.37,2013-06-11 09:50:00,
2013-06-10 23:55:00,76.1,70.2,30.01,East,85,5.0,8.0,82,0.00,CLR,,0.00,WeatherDisplay:10.37,2013-06-11 09:55:00,